createdAt,value
2018-09-14T00:01:46.640Z,99.90
2018-09-14T00:04:15.099Z,99.90
2018-09-14T00:06:43.489Z,99.90
2018-09-14T00:09:13.009Z,99.90
2018-09-14T00:11:41.812Z,99.90
2018-09-14T00:14:10.162Z,99.90
2018-09-14T00:16:38.741Z,99.90
2018-09-14T00:19:07.080Z,99.90
2018-09-14T00:21:35.721Z,99.90
2018-09-14T00:24:04.140Z,99.90
2018-09-14T00:26:32.527Z,99.90
2018-09-14T00:29:00.951Z,99.90
2018-09-14T00:31:29.351Z,99.90
2018-09-14T00:33:57.732Z,99.90
2018-09-14T00:36:26.057Z,99.90
2018-09-14T00:38:54.527Z,99.90
2018-09-14T00:41:22.866Z,99.90
2018-09-14T00:43:51.254Z,99.90
2018-09-14T00:46:19.658Z,99.90
2018-09-14T00:48:48.034Z,99.90
2018-09-14T00:51:16.412Z,99.90
2018-09-14T00:53:44.860Z,99.90
2018-09-14T00:56:13.259Z,99.90
2018-09-14T00:58:41.714Z,99.90
2018-09-14T01:01:10.118Z,99.90
2018-09-14T01:03:38.670Z,99.90
2018-09-14T01:06:07.138Z,99.90
2018-09-14T01:08:35.550Z,99.90
2018-09-14T01:11:03.919Z,99.90
2018-09-14T01:13:32.273Z,99.90
2018-09-14T01:16:00.653Z,99.90
2018-09-14T01:18:29.060Z,99.90
2018-09-14T01:20:57.449Z,99.90
2018-09-14T01:23:25.832Z,99.90
2018-09-14T01:25:54.214Z,99.90
2018-09-14T01:28:22.588Z,99.90
2018-09-14T01:30:51.205Z,99.90
2018-09-14T01:33:19.555Z,99.90
2018-09-14T01:35:53.310Z,99.90
2018-09-14T01:38:21.716Z,99.90
2018-09-14T01:40:50.202Z,99.90
2018-09-14T01:43:18.578Z,99.90
2018-09-14T01:45:46.899Z,99.90
2018-09-14T01:48:15.288Z,99.90
2018-09-14T01:50:43.640Z,99.90
2018-09-14T01:53:12.274Z,99.90
2018-09-14T01:55:40.653Z,99.90
2018-09-14T01:58:09.145Z,99.90
2018-09-14T02:00:37.572Z,99.90
2018-09-14T02:03:05.935Z,99.90
2018-09-14T02:05:34.423Z,99.90
2018-09-14T02:08:02.849Z,99.90
2018-09-14T02:10:31.200Z,99.90
2018-09-14T02:12:59.593Z,99.90
2018-09-14T02:15:27.915Z,99.90
2018-09-14T02:17:56.261Z,99.90
2018-09-14T02:20:24.623Z,99.90
2018-09-14T02:22:53.011Z,99.90
2018-09-14T02:25:21.616Z,99.90
2018-09-14T02:27:50.025Z,99.90
2018-09-14T02:30:18.476Z,99.90
2018-09-14T02:32:46.960Z,99.90
2018-09-14T02:35:15.352Z,99.90
2018-09-14T02:37:43.711Z,99.90
2018-09-14T02:40:12.085Z,99.90
2018-09-14T02:42:40.500Z,99.90
2018-09-14T02:45:08.912Z,99.90
2018-09-14T02:47:37.340Z,99.90
2018-09-14T02:50:05.772Z,99.90
2018-09-14T02:52:34.225Z,99.90
2018-09-14T02:55:02.602Z,99.90
2018-09-14T02:57:30.976Z,99.90
2018-09-14T02:59:59.422Z,99.90
2018-09-14T03:02:27.870Z,99.90
2018-09-14T03:04:56.243Z,99.90
2018-09-14T03:07:24.646Z,99.90
2018-09-14T03:09:53.031Z,99.90
2018-09-14T03:12:21.751Z,99.90
2018-09-14T03:14:50.162Z,99.90
2018-09-14T03:17:18.522Z,99.90
2018-09-14T03:19:46.931Z,99.90
2018-09-14T03:22:15.362Z,99.90
2018-09-14T03:24:43.751Z,99.90
2018-09-14T03:27:12.180Z,99.90
2018-09-14T03:29:40.575Z,99.90
2018-09-14T03:32:08.976Z,99.90
2018-09-14T03:34:37.332Z,99.90
2018-09-14T03:37:05.793Z,99.90
2018-09-14T03:39:34.381Z,99.90
2018-09-14T03:42:03.508Z,99.90
2018-09-14T03:44:31.879Z,99.90
2018-09-14T03:47:00.191Z,99.90
2018-09-14T03:49:28.627Z,99.90
2018-09-14T03:51:57.054Z,99.90
2018-09-14T03:54:25.457Z,99.90
2018-09-14T03:56:53.830Z,99.90
2018-09-14T03:59:22.403Z,99.90
2018-09-14T04:01:50.759Z,99.90
2018-09-14T04:04:19.105Z,99.90
2018-09-14T04:06:47.476Z,99.90
2018-09-14T04:09:15.832Z,99.90
2018-09-14T04:11:44.229Z,99.90
2018-09-14T04:14:12.777Z,99.90
2018-09-14T04:16:41.121Z,99.90
2018-09-14T04:19:09.490Z,99.90
2018-09-14T04:21:37.852Z,99.90
2018-09-14T04:24:06.049Z,99.90
2018-09-14T04:26:34.476Z,99.90
2018-09-14T04:29:02.908Z,99.90
2018-09-14T04:31:31.321Z,99.90
2018-09-14T04:33:59.629Z,99.90
2018-09-14T04:36:27.981Z,99.90
2018-09-14T04:38:56.438Z,99.90
2018-09-14T04:41:24.831Z,99.90
2018-09-14T04:43:53.195Z,99.90
2018-09-14T04:46:21.744Z,99.90
2018-09-14T04:48:50.128Z,99.90
2018-09-14T04:51:18.537Z,99.90
2018-09-14T04:53:46.875Z,99.90
2018-09-14T04:56:15.211Z,99.90
2018-09-14T04:58:46.759Z,99.90
2018-09-14T05:01:15.120Z,99.90
2018-09-14T05:03:43.496Z,99.90
2018-09-14T05:06:11.834Z,99.90
2018-09-14T05:08:40.268Z,99.90
2018-09-14T05:11:08.748Z,99.90
2018-09-14T05:13:37.196Z,99.90
2018-09-14T05:16:05.843Z,99.90
2018-09-14T05:18:34.266Z,99.90
2018-09-14T05:21:02.810Z,99.90
2018-09-14T05:23:31.351Z,99.90
2018-09-14T05:26:00.035Z,99.90
2018-09-14T05:28:31.488Z,99.90
2018-09-14T05:30:59.884Z,99.90
2018-09-14T05:33:28.296Z,99.90
2018-09-14T05:35:56.839Z,99.90
2018-09-14T05:38:25.300Z,99.90
2018-09-14T05:40:53.724Z,99.90
2018-09-14T05:43:22.103Z,99.90
2018-09-14T05:45:50.478Z,99.90
2018-09-14T05:48:18.880Z,99.90
2018-09-14T05:50:47.251Z,99.90
2018-09-14T05:53:15.643Z,99.90
2018-09-14T05:55:44.031Z,99.90
2018-09-14T05:58:12.435Z,99.90
2018-09-14T06:00:40.915Z,99.90
2018-09-14T06:03:09.404Z,99.90
2018-09-14T06:05:37.801Z,99.90
2018-09-14T06:08:06.440Z,99.90
2018-09-14T06:10:34.860Z,99.90
2018-09-14T06:13:03.323Z,99.90
2018-09-14T06:15:31.703Z,99.90
2018-09-14T06:18:00.138Z,99.90
2018-09-14T06:20:28.599Z,99.90
2018-09-14T06:22:56.944Z,99.90
2018-09-14T06:25:25.304Z,99.90
2018-09-14T06:27:53.736Z,99.90
2018-09-14T06:30:22.593Z,99.90
2018-09-14T06:32:50.976Z,99.90
2018-09-14T06:35:19.485Z,99.90
2018-09-14T06:37:48.168Z,99.90
2018-09-14T06:40:16.698Z,99.90
2018-09-14T06:42:45.096Z,99.90
2018-09-14T06:45:13.519Z,99.90
2018-09-14T06:47:41.907Z,99.90
2018-09-14T06:50:10.287Z,99.90
2018-09-14T06:52:38.650Z,99.90
2018-09-14T06:55:07.042Z,99.90
2018-09-14T06:57:35.513Z,99.90
2018-09-14T07:00:04.204Z,99.90
2018-09-14T07:02:32.626Z,99.90
2018-09-14T07:05:01.013Z,99.90
2018-09-14T07:07:29.352Z,99.90
2018-09-14T07:09:58.040Z,99.90
2018-09-14T07:12:26.562Z,99.90
2018-09-14T07:14:54.911Z,99.90
2018-09-14T07:17:23.372Z,99.90
2018-09-14T07:19:51.763Z,99.90
2018-09-14T07:22:20.168Z,99.90
2018-09-14T07:24:48.600Z,99.90
2018-09-14T07:27:16.815Z,99.90
2018-09-14T07:29:45.211Z,99.90
2018-09-14T07:32:13.593Z,99.90
2018-09-14T07:34:42.051Z,99.90
2018-09-14T07:37:10.404Z,99.90
2018-09-14T07:39:38.757Z,99.90
2018-09-14T07:42:07.106Z,99.90
2018-09-14T07:44:35.532Z,99.90
2018-09-14T07:47:03.998Z,99.90
2018-09-14T07:49:32.504Z,99.90
2018-09-14T07:52:00.887Z,99.90
2018-09-14T07:54:29.456Z,99.90
2018-09-14T07:56:57.856Z,99.90
2018-09-14T07:59:26.263Z,99.90
2018-09-14T08:01:54.610Z,99.90
2018-09-14T08:04:22.956Z,99.90
2018-09-14T08:06:51.290Z,99.90
2018-09-14T08:09:19.734Z,99.90
2018-09-14T08:11:48.231Z,99.90
2018-09-14T08:14:16.748Z,99.90
2018-09-14T08:16:45.267Z,99.90
2018-09-14T08:19:13.700Z,99.90
2018-09-14T08:21:42.240Z,99.90
2018-09-14T08:24:10.500Z,99.90
2018-09-14T08:26:38.932Z,99.90
2018-09-14T08:29:07.287Z,99.90
2018-09-14T08:31:35.665Z,99.90
2018-09-14T08:34:04.084Z,99.90
2018-09-14T08:36:32.520Z,99.90
2018-09-14T08:39:01.013Z,99.90
2018-09-14T08:41:29.408Z,99.90
2018-09-14T08:43:57.963Z,99.90
2018-09-14T08:46:26.332Z,99.90
2018-09-14T08:48:54.769Z,99.90
2018-09-14T08:51:23.284Z,99.90
2018-09-14T08:53:51.753Z,99.90
2018-09-14T08:56:20.200Z,99.90
2018-09-14T08:58:49.005Z,99.90
2018-09-14T09:01:17.392Z,99.90
2018-09-14T09:03:45.883Z,99.90
2018-09-14T09:06:14.299Z,99.90
2018-09-14T09:08:42.748Z,99.90
2018-09-14T09:11:11.151Z,99.90
2018-09-14T09:13:39.592Z,99.90
2018-09-14T09:16:08.012Z,99.90
2018-09-14T09:18:36.492Z,99.90
2018-09-14T09:21:04.948Z,99.90
2018-09-14T09:23:33.407Z,99.90
2018-09-14T09:26:01.902Z,99.90
2018-09-14T09:28:30.520Z,99.90
2018-09-14T09:30:59.002Z,99.90
2018-09-14T09:33:27.407Z,99.90
2018-09-14T09:35:55.799Z,99.90
2018-09-14T09:38:24.228Z,99.90
2018-09-14T09:40:52.632Z,99.90
2018-09-14T09:43:21.108Z,99.90
2018-09-14T09:45:49.448Z,99.90
2018-09-14T09:48:17.860Z,99.90
2018-09-14T09:50:46.279Z,99.90
2018-09-14T09:53:14.756Z,99.90
2018-09-14T09:55:43.240Z,99.90
2018-09-14T09:58:11.659Z,99.90
2018-09-14T10:01:46.114Z,99.90
2018-09-14T10:04:19.994Z,99.90
2018-09-14T10:06:48.400Z,99.90
2018-09-14T10:09:16.820Z,99.90
2018-09-14T10:11:45.263Z,99.90
2018-09-14T10:14:14.039Z,99.90
2018-09-14T10:16:42.548Z,99.90
2018-09-14T10:19:10.980Z,99.90
2018-09-14T10:21:39.409Z,99.90
2018-09-14T10:24:07.690Z,99.90
2018-09-14T10:26:36.085Z,99.90
2018-09-14T10:29:04.520Z,99.90
2018-09-14T10:31:32.960Z,99.90
2018-09-14T10:34:01.470Z,99.90
2018-09-14T10:36:29.803Z,99.90
2018-09-14T10:38:58.227Z,99.90
2018-09-14T10:41:26.724Z,99.90
2018-09-14T10:43:55.135Z,99.90
2018-09-14T10:46:23.587Z,99.90
2018-09-14T10:48:52.207Z,99.90
2018-09-14T10:51:20.552Z,99.90
2018-09-14T10:53:49.027Z,99.90
2018-09-14T10:56:17.482Z,99.90
2018-09-14T10:58:45.907Z,99.90
2018-09-14T11:01:15.399Z,99.90
2018-09-14T11:03:44.333Z,99.90
2018-09-14T11:06:13.673Z,99.90
2018-09-14T11:08:42.136Z,99.90
2018-09-14T11:11:10.484Z,99.90
2018-09-14T11:13:38.847Z,99.90
2018-09-14T11:16:07.243Z,99.90
2018-09-14T11:18:35.715Z,99.90
2018-09-14T11:21:04.071Z,99.90
2018-09-14T11:23:32.450Z,99.90
2018-09-14T11:26:00.961Z,99.90
2018-09-14T11:28:29.523Z,99.90
2018-09-14T11:30:57.868Z,99.90
2018-09-14T11:33:26.247Z,99.90
2018-09-14T11:35:54.684Z,99.90
2018-09-14T11:38:23.132Z,99.90
2018-09-14T11:40:51.577Z,99.90
2018-09-14T11:43:20.128Z,99.90
2018-09-14T11:45:48.916Z,99.90
2018-09-14T11:48:17.548Z,99.90
2018-09-14T11:50:45.995Z,96.70
2018-09-14T11:53:14.536Z,99.90
2018-09-14T11:55:43.099Z,99.90
2018-09-14T11:58:11.498Z,99.90
2018-09-14T12:00:40.057Z,99.90
2018-09-14T12:03:08.604Z,99.90
2018-09-14T12:05:37.155Z,99.80
2018-09-14T12:08:05.840Z,98.50
2018-09-14T12:10:34.476Z,99.90
2018-09-14T12:13:02.844Z,99.90
2018-09-14T12:15:32.239Z,98.00
2018-09-14T12:18:00.973Z,95.20
2018-09-14T12:20:34.855Z,98.90
2018-09-14T12:23:05.328Z,98.30
2018-09-14T12:25:46.507Z,98.10
2018-09-14T12:28:15.018Z,98.90
2018-09-14T12:30:43.403Z,98.10
2018-09-14T12:33:32.700Z,98.60
2018-09-14T12:36:01.096Z,99.90
2018-09-14T12:38:30.785Z,99.90
2018-09-14T12:40:59.188Z,99.90
2018-09-14T12:43:28.190Z,99.90
2018-09-14T12:45:56.619Z,99.90
2018-09-14T12:48:25.064Z,99.90
2018-09-14T12:50:53.532Z,99.90
2018-09-14T12:53:21.996Z,99.90
2018-09-14T12:55:50.370Z,99.90
2018-09-14T12:58:18.819Z,99.90
2018-09-14T13:00:47.295Z,96.80
2018-09-14T13:03:15.904Z,99.90
2018-09-14T13:05:44.312Z,95.30
2018-09-14T13:08:12.831Z,96.50
2018-09-14T13:10:41.423Z,96.10
2018-09-14T13:13:09.848Z,95.80
2018-09-14T13:15:38.264Z,92.50
2018-09-14T13:18:06.860Z,92.60
2018-09-14T13:20:35.308Z,91.90
2018-09-14T13:23:03.780Z,92.30
2018-09-14T13:25:32.323Z,92.20
2018-09-14T13:28:00.763Z,94.20
2018-09-14T13:30:29.297Z,87.30
2018-09-14T13:32:57.631Z,91.20
2018-09-14T13:35:26.079Z,96.00
2018-09-14T13:37:54.532Z,92.90
2018-09-14T13:40:22.966Z,93.70
2018-09-14T13:45:45.041Z,88.10
2018-09-14T13:48:13.572Z,83.00
2018-09-14T13:50:41.940Z,83.70
2018-09-14T13:53:10.477Z,83.60
2018-09-14T13:55:39.023Z,90.80
2018-09-14T13:58:07.439Z,84.40
2018-09-14T14:00:35.944Z,83.90
2018-09-14T14:03:04.723Z,87.50
2018-09-14T14:05:33.151Z,92.10
2018-09-14T14:08:01.615Z,83.60
2018-09-14T14:10:30.069Z,85.10
2018-09-14T14:12:58.511Z,81.30
2018-09-14T14:15:26.962Z,85.30
2018-09-14T14:17:55.396Z,89.60
2018-09-14T14:20:23.787Z,87.80
2018-09-14T14:22:52.200Z,90.10
2018-09-14T14:25:20.667Z,89.60
2018-09-14T14:27:49.080Z,91.60
2018-09-14T14:30:17.709Z,90.20
2018-09-14T14:32:46.128Z,90.50
2018-09-14T14:35:14.580Z,90.10
2018-09-14T14:37:43.021Z,92.60
2018-09-14T14:40:11.440Z,93.50
2018-09-14T14:42:39.881Z,89.70
2018-09-14T14:45:08.280Z,87.80
2018-09-14T14:47:36.729Z,89.80
2018-09-14T14:50:05.267Z,91.20
2018-09-14T14:52:33.740Z,93.70
2018-09-14T14:55:02.123Z,93.50
2018-09-14T14:57:30.520Z,93.70
2018-09-14T14:59:58.960Z,90.50
2018-09-14T15:02:29.076Z,91.80
2018-09-14T15:04:57.584Z,94.90
2018-09-14T15:07:26.024Z,93.90
2018-09-14T15:09:54.427Z,93.00
2018-09-14T15:12:22.936Z,96.10
2018-09-14T15:14:51.481Z,96.70
2018-09-14T15:17:19.968Z,99.40
2018-09-14T15:19:48.460Z,99.90
2018-09-14T15:22:16.920Z,99.90
2018-09-14T15:24:45.379Z,99.90
2018-09-14T15:27:14.112Z,99.90
2018-09-14T15:29:42.560Z,99.90
2018-09-14T15:32:10.922Z,99.90
2018-09-14T15:34:39.410Z,99.90
2018-09-14T15:37:07.936Z,99.90
2018-09-14T15:39:36.542Z,99.90
2018-09-14T15:42:05.069Z,99.90
2018-09-14T15:44:33.595Z,99.90
2018-09-14T15:47:02.079Z,99.90
2018-09-14T15:49:30.681Z,99.90
2018-09-14T15:51:59.082Z,99.90
2018-09-14T15:54:29.034Z,99.90
2018-09-14T15:56:57.367Z,99.90
2018-09-14T15:59:25.751Z,99.90
2018-09-14T16:01:54.200Z,99.90
2018-09-14T16:04:22.620Z,99.90
2018-09-14T16:06:51.083Z,99.90
2018-09-14T16:09:19.461Z,99.90
2018-09-14T16:11:49.193Z,99.90
2018-09-14T16:14:17.600Z,99.90
2018-09-14T16:16:46.252Z,99.90
2018-09-14T16:19:14.822Z,99.90
2018-09-14T16:21:43.224Z,99.90
2018-09-14T16:24:11.627Z,99.90
2018-09-14T16:26:40.041Z,99.90
2018-09-14T16:29:08.318Z,99.90
2018-09-14T16:31:36.646Z,99.90
2018-09-14T16:34:04.911Z,99.90
2018-09-14T16:36:33.214Z,99.90
2018-09-14T16:39:01.530Z,99.90
2018-09-14T16:41:29.855Z,99.90
2018-09-14T16:43:58.178Z,99.90
2018-09-14T16:46:26.458Z,99.90
2018-09-14T16:48:54.930Z,99.90
2018-09-14T16:51:23.494Z,99.90
2018-09-14T16:53:51.967Z,99.90
2018-09-14T16:56:20.495Z,99.90
2018-09-14T16:58:49.062Z,99.90
2018-09-14T17:01:17.575Z,99.90
2018-09-14T17:03:46.152Z,99.90
2018-09-14T17:06:14.691Z,99.90
2018-09-14T17:08:43.239Z,99.90
2018-09-14T17:11:11.807Z,99.90
2018-09-14T17:13:40.342Z,99.90
2018-09-14T17:16:08.938Z,99.90
2018-09-14T17:18:37.605Z,99.90
2018-09-14T17:21:06.196Z,99.90
2018-09-14T17:23:34.698Z,99.90
2018-09-14T17:26:03.354Z,99.90
2018-09-14T17:28:33.605Z,99.90
2018-09-14T17:31:02.116Z,99.90
2018-09-14T17:33:30.761Z,99.90
2018-09-14T17:35:59.367Z,99.90
2018-09-14T17:38:28.009Z,99.90
2018-09-14T17:40:56.435Z,99.90
2018-09-14T17:43:24.946Z,99.90
2018-09-14T17:45:53.525Z,99.90
2018-09-14T17:48:22.070Z,99.90
2018-09-14T17:50:50.609Z,99.90
2018-09-14T17:53:19.303Z,99.90
2018-09-14T17:55:47.760Z,99.90
2018-09-14T17:58:16.166Z,99.90
2018-09-14T18:00:44.690Z,99.90
2018-09-14T18:03:13.343Z,99.90
2018-09-14T18:05:41.959Z,99.90
2018-09-14T18:08:10.487Z,99.90
2018-09-14T18:10:39.079Z,99.90
2018-09-14T18:13:07.700Z,99.90
2018-09-14T18:15:36.320Z,99.90
2018-09-14T18:18:04.843Z,99.90
2018-09-14T18:20:33.791Z,99.90
2018-09-14T18:23:02.380Z,99.90
2018-09-14T18:25:32.251Z,99.90
2018-09-14T18:28:01.358Z,99.90
2018-09-14T18:30:29.962Z,99.90
2018-09-14T18:32:58.529Z,99.90
2018-09-14T18:35:27.102Z,99.90
2018-09-14T18:37:55.541Z,99.90
2018-09-14T18:40:24.073Z,99.90
2018-09-14T18:42:52.679Z,99.90
2018-09-14T18:45:21.253Z,99.90
2018-09-14T18:47:49.824Z,99.90
2018-09-14T18:50:18.340Z,99.90
2018-09-14T18:52:46.871Z,99.90
2018-09-14T18:55:15.443Z,99.90
2018-09-14T18:57:44.006Z,99.90
2018-09-14T19:00:13.443Z,99.90
2018-09-14T19:02:41.909Z,99.90
2018-09-14T19:05:10.376Z,99.90
2018-09-14T19:07:38.909Z,99.90
2018-09-14T19:10:07.438Z,99.90
2018-09-14T19:12:36.059Z,99.90
2018-09-14T19:15:04.586Z,99.90
2018-09-14T19:17:33.153Z,99.90
2018-09-14T19:20:01.997Z,99.90
2018-09-14T19:22:30.512Z,99.90
2018-09-14T19:24:59.143Z,99.90
2018-09-14T19:27:27.624Z,99.90
2018-09-14T19:29:56.140Z,99.90
2018-09-14T19:32:24.705Z,99.90
2018-09-14T19:34:53.682Z,99.90
2018-09-14T19:37:22.231Z,99.90
2018-09-14T19:39:50.639Z,99.90
2018-09-14T19:42:19.161Z,99.90
2018-09-14T19:44:47.695Z,99.90
2018-09-14T19:47:16.239Z,99.90
2018-09-14T19:49:44.738Z,99.90
2018-09-14T19:52:13.287Z,99.90
2018-09-14T19:54:41.884Z,99.90
2018-09-14T19:57:10.507Z,99.90
2018-09-14T19:59:39.102Z,99.90
2018-09-14T20:02:07.768Z,99.90
2018-09-14T20:04:36.375Z,99.90
2018-09-14T20:07:04.964Z,99.90
2018-09-14T20:09:33.529Z,99.90
2018-09-14T20:12:07.757Z,99.90
2018-09-14T20:14:36.619Z,99.90
2018-09-14T20:17:05.650Z,99.90
2018-09-14T20:19:34.839Z,99.90
2018-09-14T20:22:03.427Z,99.90
2018-09-14T20:24:32.022Z,99.90
2018-09-14T20:27:00.597Z,99.90
2018-09-14T20:29:29.153Z,99.90
2018-09-14T20:31:57.884Z,99.90
2018-09-14T20:34:26.400Z,99.90
2018-09-14T20:36:54.895Z,99.90
2018-09-14T20:39:23.687Z,99.90
2018-09-14T20:41:52.353Z,99.90
2018-09-14T20:44:20.905Z,99.90
2018-09-14T20:46:49.453Z,99.90
2018-09-14T20:49:17.965Z,99.90
2018-09-14T20:51:46.673Z,99.90
2018-09-14T20:54:15.186Z,99.90
2018-09-14T20:56:44.162Z,99.90
2018-09-14T20:59:12.728Z,99.90
2018-09-14T21:01:41.289Z,99.90
2018-09-14T21:04:09.818Z,99.90
2018-09-14T21:06:38.343Z,99.90
2018-09-14T21:09:08.353Z,99.90
2018-09-14T21:11:36.959Z,99.90
2018-09-14T21:14:05.586Z,99.90
2018-09-14T21:16:34.199Z,99.90
2018-09-14T21:19:03.007Z,99.90
2018-09-14T21:21:31.460Z,99.90
2018-09-14T21:23:59.984Z,99.90
2018-09-14T21:26:28.437Z,99.90
2018-09-14T21:28:56.958Z,99.90
2018-09-14T21:31:25.526Z,99.90
2018-09-14T21:33:54.015Z,99.90
2018-09-14T21:36:22.805Z,99.90
2018-09-14T21:38:51.294Z,99.90
2018-09-14T21:41:19.841Z,99.90
2018-09-14T21:43:48.478Z,99.90
2018-09-14T21:46:16.988Z,99.90
2018-09-14T21:48:45.534Z,99.90
2018-09-14T21:51:14.089Z,99.90
2018-09-14T21:53:42.676Z,99.90
2018-09-14T21:56:11.329Z,99.90
2018-09-14T21:58:39.912Z,99.90
2018-09-14T22:01:12.731Z,99.90
2018-09-14T22:03:41.912Z,99.90
2018-09-14T22:06:10.439Z,99.90
2018-09-14T22:08:38.967Z,99.90
2018-09-14T22:11:07.439Z,99.90
2018-09-14T22:13:35.976Z,99.90
2018-09-14T22:16:04.528Z,99.90
2018-09-14T22:18:33.035Z,99.90
2018-09-14T22:21:01.752Z,99.90
2018-09-14T22:23:30.317Z,99.90
2018-09-14T22:25:58.915Z,99.90
2018-09-14T22:28:27.475Z,99.90
2018-09-14T22:30:56.284Z,99.90
2018-09-14T22:33:24.863Z,99.90
2018-09-14T22:35:53.494Z,99.90
2018-09-14T22:38:22.041Z,99.90
2018-09-14T22:40:50.830Z,99.90
2018-09-14T22:43:19.300Z,99.90
2018-09-14T22:45:47.851Z,99.90
2018-09-14T22:48:16.455Z,99.90
2018-09-14T22:50:44.989Z,99.90
2018-09-14T22:53:13.513Z,99.90
2018-09-14T22:55:42.120Z,99.90
2018-09-14T22:58:10.578Z,99.90
2018-09-14T23:01:47.215Z,99.90
2018-09-14T23:04:15.738Z,99.90
2018-09-14T23:06:44.368Z,99.90
2018-09-14T23:09:12.948Z,99.90
2018-09-14T23:11:41.719Z,99.90
2018-09-14T23:14:10.265Z,99.90
2018-09-14T23:16:38.785Z,99.90
2018-09-14T23:19:07.358Z,99.90
2018-09-14T23:21:36.146Z,99.90
2018-09-14T23:24:04.798Z,99.90
2018-09-14T23:26:33.531Z,99.90
2018-09-14T23:29:02.118Z,99.90
2018-09-14T23:31:30.665Z,99.90
2018-09-14T23:33:59.226Z,99.90
2018-09-14T23:36:27.698Z,99.90
2018-09-14T23:38:56.201Z,99.90
2018-09-14T23:41:24.678Z,99.90
2018-09-14T23:43:53.219Z,99.90
2018-09-14T23:46:21.813Z,99.90
2018-09-14T23:48:50.344Z,99.90
2018-09-14T23:51:18.865Z,99.90
2018-09-14T23:53:47.432Z,99.90
2018-09-14T23:56:15.950Z,99.90
2018-09-14T23:58:44.674Z,99.90
